createdAt,value
2018-01-14T00:00:08.818Z,2.10
2018-01-14T00:02:37.045Z,2.10
2018-01-14T00:05:05.298Z,2.10
2018-01-14T00:07:33.617Z,2.00
2018-01-14T00:10:01.829Z,1.90
2018-01-14T00:12:30.825Z,1.90
2018-01-14T00:14:59.098Z,1.90
2018-01-14T00:17:27.349Z,1.90
2018-01-14T00:19:55.589Z,2.00
2018-01-14T00:22:23.882Z,2.00
2018-01-14T00:24:52.420Z,1.90
2018-01-14T00:27:20.633Z,2.00
2018-01-14T00:29:49.650Z,2.00
2018-01-14T00:32:17.884Z,1.90
2018-01-14T00:34:46.151Z,2.00
2018-01-14T00:37:14.425Z,2.00
2018-01-14T00:39:44.702Z,2.00
2018-01-14T00:45:11.186Z,2.00
2018-01-14T00:47:40.149Z,1.90
2018-01-14T00:50:09.161Z,1.90
2018-01-14T00:52:37.545Z,1.80
2018-01-14T00:55:05.804Z,1.90
2018-01-14T00:57:34.202Z,1.90
2018-01-14T01:00:02.433Z,2.00
2018-01-14T01:02:31.472Z,1.90
2018-01-14T01:04:59.668Z,1.90
2018-01-14T01:07:28.197Z,1.90
2018-01-14T01:09:56.429Z,1.90
2018-01-14T01:12:24.686Z,1.90
2018-01-14T01:14:52.906Z,1.90
2018-01-14T01:17:21.507Z,1.80
2018-01-14T01:19:50.513Z,1.80
2018-01-14T01:22:18.765Z,1.80
2018-01-14T01:24:48.069Z,1.90
2018-01-14T01:27:17.064Z,2.00
2018-01-14T01:29:45.364Z,2.00
2018-01-14T01:32:13.593Z,2.00
2018-01-14T01:34:42.616Z,2.00
2018-01-14T01:37:11.593Z,2.00
2018-01-14T01:39:40.901Z,2.00
2018-01-14T01:42:09.906Z,2.10
2018-01-14T01:44:38.906Z,2.10
2018-01-14T01:47:07.286Z,2.00
2018-01-14T01:49:35.536Z,2.10
2018-01-14T01:52:03.779Z,2.10
2018-01-14T01:54:32.009Z,2.10
2018-01-14T01:59:58.685Z,2.10
2018-01-14T02:02:46.610Z,2.00
2018-01-14T02:05:14.826Z,1.90
2018-01-14T02:07:43.061Z,1.90
2018-01-14T02:10:16.217Z,2.00
2018-01-14T02:12:45.216Z,2.00
2018-01-14T02:15:13.509Z,1.90
2018-01-14T02:17:41.748Z,1.90
2018-01-14T02:20:10.751Z,1.90
2018-01-14T02:22:39.877Z,1.90
2018-01-14T02:25:08.117Z,2.00
2018-01-14T02:27:37.118Z,1.90
2018-01-14T02:30:06.118Z,1.90
2018-01-14T02:32:34.389Z,1.80
2018-01-14T02:35:02.605Z,1.90
2018-01-14T02:37:30.845Z,1.80
2018-01-14T02:39:59.097Z,1.90
2018-01-14T02:42:27.322Z,1.90
2018-01-14T02:47:53.589Z,1.90
2018-01-14T02:50:21.831Z,1.80
2018-01-14T02:52:50.053Z,1.90
2018-01-14T02:55:18.292Z,1.80
2018-01-14T02:57:46.512Z,1.90
2018-01-14T03:00:14.729Z,1.90
2018-01-14T03:02:42.970Z,1.80
2018-01-14T03:05:11.225Z,1.90
2018-01-14T03:07:39.457Z,1.90
2018-01-14T03:10:07.696Z,1.90
2018-01-14T03:12:36.685Z,2.00
2018-01-14T03:15:05.691Z,2.00
2018-01-14T03:17:34.685Z,2.00
2018-01-14T03:20:03.706Z,1.90
2018-01-14T03:25:27.984Z,1.80
2018-01-14T03:27:56.204Z,1.90
2018-01-14T03:30:24.480Z,1.90
2018-01-14T03:32:52.751Z,1.80
2018-01-14T03:35:21.006Z,1.90
2018-01-14T03:37:49.240Z,1.90
2018-01-14T03:40:18.246Z,2.00
2018-01-14T03:42:46.605Z,2.00
2018-01-14T03:45:15.617Z,2.00
2018-01-14T03:47:44.650Z,2.00
2018-01-14T03:50:12.845Z,2.00
2018-01-14T03:52:41.085Z,2.00
2018-01-14T03:55:09.320Z,1.90
2018-01-14T03:57:38.335Z,1.90
2018-01-14T04:00:06.653Z,1.90
2018-01-14T04:02:34.876Z,1.90
2018-01-14T04:05:03.936Z,2.00
2018-01-14T04:07:32.252Z,2.00
2018-01-14T04:12:58.021Z,1.90
2018-01-14T04:15:26.259Z,1.90
2018-01-14T04:17:54.469Z,1.80
2018-01-14T04:20:22.685Z,1.90
2018-01-14T04:22:51.714Z,1.90
2018-01-14T04:25:19.925Z,1.80
2018-01-14T04:27:48.170Z,1.90
2018-01-14T04:33:14.051Z,2.10
2018-01-14T04:35:42.286Z,2.00
2018-01-14T04:38:10.562Z,2.00
2018-01-14T04:40:39.532Z,2.00
2018-01-14T04:43:08.513Z,2.00
2018-01-14T04:45:37.509Z,2.00
2018-01-14T04:48:05.742Z,1.90
2018-01-14T04:50:33.964Z,2.00
2018-01-14T04:53:21.921Z,2.00
2018-01-14T04:55:50.150Z,1.90
2018-01-14T04:58:18.352Z,1.80
2018-01-14T05:03:45.012Z,1.70
2018-01-14T05:06:14.119Z,1.70
2018-01-14T05:08:42.352Z,1.70
2018-01-14T05:11:12.208Z,1.70
2018-01-14T05:13:41.276Z,1.70
2018-01-14T05:16:09.540Z,1.70
2018-01-14T05:18:37.849Z,1.70
2018-01-14T05:21:06.097Z,1.70
2018-01-14T05:23:34.313Z,1.60
2018-01-14T05:26:02.595Z,1.60
2018-01-14T05:28:31.585Z,1.60
2018-01-14T05:30:59.844Z,1.50
2018-01-14T05:33:28.091Z,1.60
2018-01-14T05:35:56.301Z,1.50
2018-01-14T05:38:24.532Z,1.50
2018-01-14T05:40:52.753Z,1.50
2018-01-14T05:43:20.965Z,1.40
2018-01-14T05:45:49.179Z,1.50
2018-01-14T05:48:18.197Z,1.50
2018-01-14T05:50:46.642Z,1.40
2018-01-14T05:53:15.657Z,1.40
2018-01-14T05:55:43.872Z,1.30
2018-01-14T05:58:12.114Z,1.30
2018-01-14T06:00:40.337Z,1.30
2018-01-14T06:06:09.189Z,1.10
2018-01-14T06:11:36.868Z,1.10
2018-01-14T06:14:05.118Z,1.00
2018-01-14T06:22:28.629Z,1.00
2018-01-14T06:24:57.008Z,1.00
2018-01-14T06:27:25.993Z,0.90
2018-01-14T06:29:54.233Z,0.80
2018-01-14T06:32:22.459Z,0.80
2018-01-14T06:34:51.089Z,0.70
2018-01-14T06:37:25.817Z,0.70
2018-01-14T06:39:54.032Z,0.60
2018-01-14T06:42:23.036Z,0.50
2018-01-14T06:44:51.262Z,0.50
2018-01-14T06:47:19.483Z,0.40
2018-01-14T06:49:47.709Z,0.40
2018-01-14T06:52:15.981Z,0.40
2018-01-14T06:54:44.221Z,0.40
2018-01-14T06:57:12.437Z,0.30
2018-01-14T06:59:40.670Z,0.20
2018-01-14T07:02:08.886Z,0.20
2018-01-14T07:04:37.925Z,0.10
2018-01-14T07:07:06.918Z,0.20
2018-01-14T07:09:36.207Z,0.20
2018-01-14T07:12:05.218Z,0.10
2018-01-14T07:14:33.450Z,0.00
2018-01-14T07:17:02.453Z,0.00
2018-01-14T07:19:31.558Z,0.00
2018-01-14T07:22:00.541Z,0.00
2018-01-14T07:24:29.652Z,0.00
2018-01-14T07:26:58.626Z,0.00
2018-01-14T07:29:26.858Z,-0.10
2018-01-14T07:31:55.086Z,-0.10
2018-01-14T07:34:24.102Z,-0.20
2018-01-14T07:36:53.074Z,-0.20
2018-01-14T07:39:22.053Z,-0.30
2018-01-14T07:41:50.297Z,-0.30
2018-01-14T07:44:18.525Z,-0.20
2018-01-14T07:46:47.514Z,-0.30
2018-01-14T07:49:16.499Z,-0.30
2018-01-14T07:51:45.517Z,-0.30
2018-01-14T07:54:13.762Z,-0.30
2018-01-14T07:56:42.781Z,-0.30
2018-01-14T07:59:11.037Z,-0.30
2018-01-14T08:01:40.211Z,-0.20
2018-01-14T08:04:08.369Z,-0.30
2018-01-14T08:06:36.613Z,-0.20
2018-01-14T08:09:04.962Z,-0.20
2018-01-14T08:11:33.141Z,-0.20
2018-01-14T08:14:01.381Z,-0.20
2018-01-14T08:16:29.617Z,-0.30
2018-01-14T08:18:57.865Z,-0.20
2018-01-14T08:21:26.077Z,-0.20
2018-01-14T08:23:54.341Z,-0.20
2018-01-14T08:26:22.570Z,-0.20
2018-01-14T08:28:51.593Z,-0.20
2018-01-14T08:31:19.810Z,-0.20
2018-01-14T08:33:48.053Z,-0.20
2018-01-14T08:36:16.298Z,-0.10
2018-01-14T08:38:45.289Z,-0.10
2018-01-14T08:41:14.298Z,-0.10
2018-01-14T08:43:42.517Z,-0.20
2018-01-14T08:46:10.768Z,-0.10
2018-01-14T08:48:38.981Z,-0.10
2018-01-14T08:51:07.257Z,-0.10
2018-01-14T08:53:35.477Z,-0.20
2018-01-14T08:56:03.708Z,-0.10
2018-01-14T08:58:31.924Z,-0.10
2018-01-14T09:01:00.193Z,-0.10
2018-01-14T09:03:28.457Z,-0.10
2018-01-14T09:05:57.474Z,-0.10
2018-01-14T09:08:25.700Z,-0.10
2018-01-14T09:10:53.921Z,-0.10
2018-01-14T09:13:22.140Z,0.00
2018-01-14T09:15:50.344Z,0.00
2018-01-14T09:18:18.553Z,0.00
2018-01-14T09:20:46.756Z,0.00
2018-01-14T09:23:15.004Z,0.00
2018-01-14T09:25:43.206Z,0.10
2018-01-14T09:28:11.449Z,0.10
2018-01-14T09:30:51.258Z,0.10
2018-01-14T09:33:19.467Z,0.10
2018-01-14T09:35:47.673Z,0.20
2018-01-14T09:38:15.910Z,0.20
2018-01-14T09:40:44.128Z,0.30
2018-01-14T09:43:12.336Z,0.30
2018-01-14T09:45:41.328Z,0.30
2018-01-14T09:48:09.805Z,0.30
2018-01-14T09:50:38.017Z,0.40
2018-01-14T09:53:06.260Z,0.40
2018-01-14T09:58:33.331Z,0.50
2018-01-14T10:01:02.320Z,0.40
2018-01-14T10:03:31.306Z,0.50
2018-01-14T10:05:59.525Z,0.40
2018-01-14T10:08:27.744Z,0.50
2018-01-14T10:10:55.972Z,0.50
2018-01-14T10:13:24.189Z,0.60
2018-01-14T10:15:52.500Z,0.60
2018-01-14T10:18:21.471Z,0.60
2018-01-14T10:20:50.472Z,0.50
2018-01-14T10:23:19.478Z,0.60
2018-01-14T10:25:47.721Z,0.50
2018-01-14T10:28:16.700Z,0.70
2018-01-14T10:30:45.013Z,0.60
2018-01-14T10:33:13.301Z,0.70
2018-01-14T10:35:43.072Z,0.70
2018-01-14T10:38:12.112Z,0.70
2018-01-14T10:40:40.343Z,0.70
2018-01-14T10:43:09.344Z,0.80
2018-01-14T10:45:38.340Z,0.80
2018-01-14T10:48:07.336Z,0.90
2018-01-14T10:50:36.329Z,0.90
2018-01-14T10:53:05.337Z,1.00
2018-01-14T10:55:33.598Z,0.90
2018-01-14T10:58:02.581Z,1.10
2018-01-14T11:00:36.617Z,1.10
2018-01-14T11:03:05.624Z,1.40
2018-01-14T11:05:33.828Z,1.30
2018-01-14T11:08:02.061Z,1.50
2018-01-14T11:10:30.269Z,1.40
2018-01-14T11:12:58.477Z,1.30
2018-01-14T11:15:26.704Z,1.30
2018-01-14T11:17:54.957Z,1.30
2018-01-14T11:20:23.150Z,1.30
2018-01-14T11:22:51.360Z,1.20
2018-01-14T11:25:19.577Z,1.30
2018-01-14T11:27:47.801Z,1.30
2018-01-14T11:30:16.019Z,1.40
2018-01-14T11:32:45.111Z,1.50
2018-01-14T11:35:14.081Z,1.50
2018-01-14T11:37:42.300Z,1.40
2018-01-14T11:40:10.525Z,1.40
2018-01-14T11:42:38.742Z,1.40
2018-01-14T11:45:06.991Z,1.50
2018-01-14T11:47:35.181Z,1.50
2018-01-14T11:50:04.143Z,1.50
2018-01-14T11:52:33.143Z,1.60
2018-01-14T11:55:02.140Z,1.60
2018-01-14T11:57:30.361Z,1.60
2018-01-14T11:59:58.591Z,1.70
2018-01-14T12:02:27.596Z,1.80
2018-01-14T12:04:55.809Z,1.70
2018-01-14T12:07:24.020Z,1.80
2018-01-14T12:09:52.350Z,1.90
2018-01-14T12:12:20.593Z,1.90
2018-01-14T12:14:49.565Z,1.90
2018-01-14T12:17:18.574Z,1.90
2018-01-14T12:19:46.793Z,1.90
2018-01-14T12:22:15.822Z,2.10
2018-01-14T12:24:44.041Z,2.00
2018-01-14T12:27:12.273Z,2.10
2018-01-14T12:29:41.577Z,2.10
2018-01-14T12:32:09.777Z,2.10
2018-01-14T12:34:39.840Z,2.10
2018-01-14T12:37:08.036Z,2.20
2018-01-14T12:39:36.261Z,2.10
2018-01-14T12:42:04.496Z,2.20
2018-01-14T12:44:32.781Z,2.20
2018-01-14T12:47:01.016Z,2.20
2018-01-14T12:49:29.245Z,2.10
2018-01-14T12:51:57.697Z,2.10
2018-01-14T12:54:25.929Z,2.20
2018-01-14T12:56:54.922Z,2.10
2018-01-14T12:59:23.926Z,2.10
2018-01-14T13:01:52.190Z,2.00
2018-01-14T13:04:21.184Z,2.00
2018-01-14T13:06:49.434Z,1.90
2018-01-14T13:09:17.637Z,2.00
2018-01-14T13:11:46.154Z,1.90
2018-01-14T13:14:15.129Z,1.90
2018-01-14T13:16:43.341Z,1.90
2018-01-14T13:19:11.568Z,1.90
2018-01-14T13:21:39.781Z,1.90
2018-01-14T13:24:08.760Z,2.00
2018-01-14T13:26:36.965Z,1.90
2018-01-14T13:29:05.228Z,2.00
2018-01-14T13:31:33.468Z,2.00
2018-01-14T13:34:01.693Z,2.00
2018-01-14T13:36:29.906Z,2.10
2018-01-14T13:38:58.129Z,2.00
2018-01-14T13:41:26.344Z,2.10
2018-01-14T13:43:54.578Z,2.10
2018-01-14T13:46:22.814Z,2.10
2018-01-14T13:48:51.317Z,2.10
2018-01-14T13:51:20.303Z,2.20
2018-01-14T13:53:48.537Z,2.10
2018-01-14T13:56:16.761Z,2.20
2018-01-14T13:58:45.737Z,2.20
2018-01-14T14:01:14.740Z,2.20
2018-01-14T14:03:43.726Z,2.10
2018-01-14T14:06:12.732Z,2.10
2018-01-14T14:08:41.734Z,2.10
2018-01-14T14:11:09.983Z,2.10
2018-01-14T14:13:38.196Z,2.10
2018-01-14T14:16:06.421Z,2.10
2018-01-14T14:18:35.413Z,2.00
2018-01-14T14:26:47.895Z,1.90
2018-01-14T14:29:16.104Z,1.80
2018-01-14T14:31:44.377Z,1.90
2018-01-14T14:34:13.446Z,1.90
2018-01-14T14:36:41.667Z,1.80
2018-01-14T14:39:09.877Z,1.90
2018-01-14T14:41:38.893Z,1.80
2018-01-14T14:44:07.979Z,1.80
2018-01-14T14:46:36.185Z,1.70
2018-01-14T14:49:04.414Z,1.70
2018-01-14T14:51:33.385Z,1.70
2018-01-14T14:54:02.413Z,1.70
2018-01-14T14:56:30.658Z,1.60
2018-01-14T14:58:59.640Z,1.60
2018-01-14T15:01:27.875Z,1.60
2018-01-14T15:03:56.517Z,1.60
2018-01-14T15:06:25.520Z,1.60
2018-01-14T15:08:54.534Z,1.50
2018-01-14T15:11:22.777Z,1.50
2018-01-14T15:13:50.972Z,1.50
2018-01-14T15:16:19.211Z,1.50
2018-01-14T15:18:48.212Z,1.50
2018-01-14T15:21:16.462Z,1.40
2018-01-14T15:23:44.673Z,1.40
2018-01-14T15:26:12.902Z,1.40
2018-01-14T15:28:41.157Z,1.30
2018-01-14T15:31:10.238Z,1.30
2018-01-14T15:33:38.482Z,1.20
2018-01-14T15:36:07.461Z,1.20
2018-01-14T15:38:35.714Z,1.20
2018-01-14T15:41:03.933Z,1.20
2018-01-14T15:43:32.221Z,1.10
2018-01-14T15:46:00.452Z,1.10
2018-01-14T15:48:28.686Z,1.10
2018-01-14T15:50:56.918Z,1.10
2018-01-14T15:53:25.336Z,1.00
2018-01-14T15:55:53.602Z,1.00
2018-01-14T15:58:21.786Z,0.90
2018-01-14T16:00:50.053Z,0.90
2018-01-14T16:03:18.429Z,0.90
2018-01-14T16:05:46.641Z,0.90
2018-01-14T16:08:14.880Z,0.90
2018-01-14T16:10:43.865Z,0.80
2018-01-14T16:13:12.088Z,0.80
2018-01-14T16:15:40.313Z,0.80
2018-01-14T16:18:09.273Z,0.80
2018-01-14T16:20:38.284Z,0.80
2018-01-14T16:23:07.260Z,0.80
2018-01-14T16:25:36.476Z,0.80
2018-01-14T16:28:04.954Z,0.70
2018-01-14T16:30:33.185Z,0.70
2018-01-14T16:33:01.437Z,0.70
2018-01-14T16:35:29.687Z,0.70
2018-01-14T16:37:58.688Z,0.70
2018-01-14T16:40:26.948Z,0.60
2018-01-14T16:42:55.178Z,0.70
2018-01-14T16:45:23.398Z,0.70
2018-01-14T16:47:52.376Z,0.60
2018-01-14T16:50:21.558Z,0.60
2018-01-14T16:52:49.850Z,0.60
2018-01-14T16:55:18.857Z,0.60
2018-01-14T16:57:48.204Z,0.60
2018-01-14T17:00:16.805Z,0.50
2018-01-14T17:02:46.497Z,0.60
2018-01-14T17:05:14.709Z,0.50
2018-01-14T17:07:42.941Z,0.50
2018-01-14T17:10:11.988Z,0.50
2018-01-14T17:12:40.217Z,0.40
2018-01-14T17:15:09.238Z,0.50
2018-01-14T17:17:37.460Z,0.50
2018-01-14T17:20:05.672Z,0.50
2018-01-14T17:22:34.819Z,0.50
2018-01-14T17:25:03.058Z,0.40
2018-01-14T17:27:31.280Z,0.50
2018-01-14T17:29:59.515Z,0.50
2018-01-14T17:32:28.538Z,0.50
2018-01-14T17:34:56.749Z,0.40
2018-01-14T17:37:24.985Z,0.50
2018-01-14T17:39:53.201Z,0.50
2018-01-14T17:42:22.245Z,0.50
2018-01-14T17:44:50.473Z,0.50
2018-01-14T17:47:18.704Z,0.50
2018-01-14T17:49:47.467Z,0.50
2018-01-14T17:52:15.729Z,0.50
2018-01-14T17:54:44.726Z,0.50
2018-01-14T17:57:13.847Z,0.50
2018-01-14T17:59:42.003Z,0.50
2018-01-14T18:02:11.042Z,0.60
2018-01-14T18:04:39.271Z,0.50
2018-01-14T18:07:07.471Z,0.60
2018-01-14T18:09:35.707Z,0.60
2018-01-14T18:12:03.925Z,0.50
2018-01-14T18:14:32.162Z,0.50
2018-01-14T18:17:01.977Z,0.60
2018-01-14T18:19:30.977Z,0.60
2018-01-14T18:21:59.958Z,0.60
2018-01-14T18:24:28.196Z,0.50
2018-01-14T18:26:56.420Z,0.60
2018-01-14T18:29:26.162Z,0.50
2018-01-14T18:31:54.419Z,0.50
2018-01-14T18:34:22.674Z,0.50
2018-01-14T18:36:50.922Z,0.50
2018-01-14T18:39:19.149Z,0.60
2018-01-14T18:41:47.409Z,0.60
2018-01-14T18:44:16.380Z,0.60
2018-01-14T18:46:44.585Z,0.50
2018-01-14T18:49:12.825Z,0.50
2018-01-14T18:51:41.813Z,0.50
2018-01-14T18:54:10.011Z,0.50
2018-01-14T18:56:38.317Z,0.50
2018-01-14T18:59:06.536Z,0.50
2018-01-14T19:01:34.752Z,0.40
2018-01-14T19:04:02.986Z,0.40
2018-01-14T19:06:31.230Z,0.30
2018-01-14T19:08:59.454Z,0.30
2018-01-14T19:11:27.650Z,0.30
2018-01-14T19:13:55.868Z,0.20
2018-01-14T19:16:24.111Z,0.20
2018-01-14T19:18:52.333Z,0.20
2018-01-14T19:21:20.580Z,0.20
2018-01-14T19:23:48.848Z,0.10
2018-01-14T19:26:18.100Z,0.10
2018-01-14T19:28:47.097Z,0.10
2018-01-14T19:31:16.076Z,0.10
2018-01-14T19:33:44.285Z,0.00
2018-01-14T19:36:12.518Z,0.00
2018-01-14T19:38:40.745Z,0.00
2018-01-14T19:41:09.100Z,-0.10
2018-01-14T19:43:37.323Z,0.00
2018-01-14T19:46:05.548Z,-0.10
2018-01-14T19:48:33.926Z,-0.10
2018-01-14T19:51:03.006Z,-0.10
2018-01-14T19:53:32.009Z,-0.10
2018-01-14T19:56:01.057Z,-0.10
2018-01-14T19:58:29.323Z,-0.20
2018-01-14T20:00:57.541Z,-0.10
2018-01-14T20:03:25.829Z,-0.20
2018-01-14T20:05:54.096Z,-0.20
2018-01-14T20:08:22.281Z,-0.20
2018-01-14T20:10:50.584Z,-0.20
2018-01-14T20:13:19.660Z,-0.20
2018-01-14T20:15:48.638Z,-0.20
2018-01-14T20:18:16.917Z,-0.30
2018-01-14T20:20:46.001Z,-0.30
2018-01-14T20:26:13.055Z,-0.30
2018-01-14T20:28:42.482Z,-0.30
2018-01-14T20:31:10.840Z,-0.40
2018-01-14T20:33:39.903Z,-0.40
2018-01-14T20:36:08.146Z,-0.40
2018-01-14T20:38:36.628Z,-0.40
2018-01-14T20:41:04.848Z,-0.40
2018-01-14T20:43:33.096Z,-0.40
2018-01-14T20:46:01.442Z,-0.40
2018-01-14T20:48:30.414Z,-0.40
2018-01-14T20:50:59.442Z,-0.30
2018-01-14T20:53:27.662Z,-0.40
2018-01-14T20:55:55.898Z,-0.40
2018-01-14T20:58:25.184Z,-0.40
2018-01-14T21:03:52.225Z,-0.40
2018-01-14T21:06:21.231Z,-0.40
2018-01-14T21:08:49.798Z,-0.50
2018-01-14T21:11:17.992Z,-0.40
2018-01-14T21:13:46.318Z,-0.40
2018-01-14T21:16:14.587Z,-0.40
2018-01-14T21:18:43.003Z,-0.40
2018-01-14T21:21:12.080Z,-0.40
2018-01-14T21:23:40.979Z,-0.40
2018-01-14T21:26:09.253Z,-0.40
2018-01-14T21:28:37.469Z,-0.30
2018-01-14T21:31:05.743Z,-0.30
2018-01-14T21:33:33.992Z,-0.30
2018-01-14T21:36:02.332Z,-0.30
2018-01-14T21:38:30.589Z,-0.20
2018-01-14T21:40:59.543Z,-0.20
2018-01-14T21:43:28.229Z,-0.20
2018-01-14T21:45:56.485Z,-0.30
2018-01-14T21:48:25.501Z,-0.20
2018-01-14T21:50:53.762Z,-0.30
2018-01-14T21:53:22.779Z,-0.20
2018-01-14T21:55:51.001Z,-0.30
2018-01-14T21:58:19.425Z,-0.20
2018-01-14T22:00:47.701Z,-0.20
2018-01-14T22:06:13.711Z,-0.20
2018-01-14T22:08:41.945Z,-0.20
2018-01-14T22:11:10.996Z,-0.30
2018-01-14T22:13:39.981Z,-0.20
2018-01-14T22:16:08.210Z,-0.30
2018-01-14T22:18:36.464Z,-0.30
2018-01-14T22:21:04.710Z,-0.20
2018-01-14T22:23:32.912Z,-0.20
2018-01-14T22:26:01.153Z,-0.30
2018-01-14T22:28:30.150Z,-0.30
2018-01-14T22:30:58.407Z,-0.30
2018-01-14T22:33:26.634Z,-0.30
2018-01-14T22:35:54.897Z,-0.30
2018-01-14T22:38:23.141Z,-0.30
2018-01-14T22:40:52.268Z,-0.30
2018-01-14T22:43:21.426Z,-0.40
2018-01-14T22:45:49.666Z,-0.30
2018-01-14T22:48:17.904Z,-0.30
2018-01-14T22:50:46.141Z,-0.30
2018-01-14T22:53:14.373Z,-0.30
2018-01-14T22:55:42.689Z,-0.30
2018-01-14T22:58:12.444Z,-0.30
2018-01-14T23:00:40.684Z,-0.30
2018-01-14T23:03:08.905Z,-0.20
2018-01-14T23:05:37.194Z,-0.20
2018-01-14T23:08:05.477Z,-0.30
2018-01-14T23:10:33.783Z,-0.30
2018-01-14T23:13:02.211Z,-0.30
2018-01-14T23:15:30.474Z,-0.30
2018-01-14T23:17:58.713Z,-0.30
2018-01-14T23:20:27.713Z,-0.20
2018-01-14T23:22:56.005Z,-0.20
2018-01-14T23:25:24.232Z,-0.20
2018-01-14T23:27:52.508Z,-0.30
2018-01-14T23:30:20.757Z,-0.20
2018-01-14T23:32:48.968Z,-0.20
2018-01-14T23:35:17.486Z,-0.20
2018-01-14T23:37:45.724Z,-0.20
2018-01-14T23:40:13.986Z,-0.20
2018-01-14T23:42:42.226Z,-0.20
2018-01-14T23:45:10.466Z,-0.20
2018-01-14T23:47:39.456Z,-0.20
2018-01-14T23:53:05.972Z,-0.20
2018-01-14T23:55:34.212Z,-0.20
2018-01-14T23:58:02.498Z,-0.20
